sensor_id;sensor_type;location;lat;lon;timestamp;pressure;altitude;pressure_sealevel;temperature;humidity
26915;BME280;14480;52.608;13.416;2023-04-20T11:53:39;143316.19;;;-2.74;100.00
26915;BME280;14480;52.608;13.416;2023-04-20T11:58:45;143216.88;;;-3.15;100.00
26915;BME280;14480;52.608;13.416;2023-04-20T12:03:49;143224.38;;;-3.12;100.00
26915;BME280;14480;52.608;13.416;2023-04-20T12:08:55;143323.63;;;-2.71;100.00
26915;BME280;14480;52.608;13.416;2023-04-20T12:14:00;143327.34;;;-2.70;100.00
26915;BME280;14480;52.608;13.416;2023-04-20T12:19:06;143329.81;;;-2.69;100.00
26915;BME280;14480;52.608;13.416;2023-04-20T12:24:13;143440.31;;;-2.23;100.00
26915;BME280;14480;52.608;13.416;2023-04-20T12:29:17;143415.47;;;-2.33;100.00
26915;BME280;14480;52.608;13.416;2023-04-20T12:34:26;143426.69;;;-2.29;100.00
26915;BME280;14480;52.608;13.416;2023-04-20T12:39:33;143404.31;;;-2.38;100.00
26915;BME280;14480;52.608;13.416;2023-04-20T12:44:37;143435.38;;;-2.25;100.00
26915;BME280;14480;52.608;13.416;2023-04-20T12:49:48;143514.84;;;-1.93;100.00
26915;BME280;14480;52.608;13.416;2023-04-20T12:54:53;143517.34;;;-1.92;100.00
26915;BME280;14480;52.608;13.416;2023-04-20T13:00:01;143377.00;;;-2.49;100.00
26915;BME280;14480;52.608;13.416;2023-04-20T13:05:07;143547.16;;;-1.80;100.00
26915;BME280;14480;52.608;13.416;2023-04-20T13:10:15;143548.38;;;-1.79;100.00
26915;BME280;14480;52.608;13.416;2023-04-20T13:15:19;143615.44;;;-1.52;100.00
26915;BME280;14480;52.608;13.416;2023-04-20T13:20:39;143673.84;;;-1.28;100.00
26915;BME280;14480;52.608;13.416;2023-04-20T13:25:44;143733.56;;;-1.03;100.00
26915;BME280;14480;52.608;13.416;2023-04-20T13:30:48;143789.50;;;-0.80;100.00
26915;BME280;14480;52.608;13.416;2023-04-20T13:35:52;143830.50;;;-0.64;100.00
26915;BME280;14480;52.608;13.416;2023-04-20T13:40:57;143789.50;;;-0.80;100.00
26915;BME280;14480;52.608;13.416;2023-04-20T13:46:01;143724.81;;;-1.07;100.00
26915;BME280;14480;52.608;13.416;2023-04-20T13:51:05;143750.94;;;-0.96;100.00
26915;BME280;14480;52.608;13.416;2023-04-20T13:56:13;143738.53;;;-1.01;100.00
26915;BME280;14480;52.608;13.416;2023-04-20T14:01:19;143729.78;;;-1.05;100.00
26915;BME280;14480;52.608;13.416;2023-04-20T14:06:24;143718.63;;;-1.09;100.00
26915;BME280;14480;52.608;13.416;2023-04-20T14:11:48;143819.34;;;-0.68;100.00
26915;BME280;14480;52.608;13.416;2023-04-20T14:16:57;143884.00;;;-0.42;100.00
26915;BME280;14480;52.608;13.416;2023-04-20T14:22:01;143880.28;;;-0.43;100.00
26915;BME280;14480;52.608;13.416;2023-04-20T14:27:06;143906.38;;;-0.33;100.00
26915;BME280;14480;52.608;13.416;2023-04-20T14:32:09;143891.44;;;-0.39;100.00
26915;BME280;14480;52.608;13.416;2023-04-20T14:37:13;143959.88;;;-0.11;100.00
26915;BME280;14480;52.608;13.416;2023-04-20T14:42:21;143953.63;;;-0.13;100.00
26915;BME280;14480;52.608;13.416;2023-04-20T14:47:25;143977.28;;;-0.04;100.00
26915;BME280;14480;52.608;13.416;2023-04-20T14:52:29;143930.03;;;-0.23;100.00
26915;BME280;14480;52.608;13.416;2023-04-20T14:57:34;143861.59;;;-0.51;100.00
26915;BME280;14480;52.608;13.416;2023-04-20T15:02:40;143783.25;;;-0.83;100.00
26915;BME280;14480;52.608;13.416;2023-04-20T15:07:44;143743.47;;;-0.99;100.00
26915;BME280;14480;52.608;13.416;2023-04-20T15:12:54;143755.91;;;-0.94;100.00
26915;BME280;14480;52.608;13.416;2023-04-20T15:17:57;143773.31;;;-0.87;100.00
26915;BME280;14480;52.608;13.416;2023-04-20T15:23:03;143798.19;;;-0.77;100.00
26915;BME280;14480;52.608;13.416;2023-04-20T15:28:08;143789.50;;;-0.80;100.00
26915;BME280;14480;52.608;13.416;2023-04-20T15:33:12;143845.47;;;-0.57;100.00
26915;BME280;14480;52.608;13.416;2023-04-20T15:38:20;143885.22;;;-0.41;100.00
26915;BME280;14480;52.608;13.416;2023-04-20T15:43:27;143851.66;;;-0.55;100.00
26915;BME280;14480;52.608;13.416;2023-04-20T15:48:33;143743.47;;;-0.99;100.00
26915;BME280;14480;52.608;13.416;2023-04-20T15:53:37;143687.56;;;-1.22;100.00
26915;BME280;14480;52.608;13.416;2023-04-20T15:58:42;143678.88;;;-1.26;100.00
26915;BME280;14480;52.608;13.416;2023-04-20T16:03:47;143713.66;;;-1.11;100.00
26915;BME280;14480;52.608;13.416;2023-04-20T16:08:51;143726.06;;;-1.06;100.00
26915;BME280;14480;52.608;13.416;2023-04-20T16:13:57;143718.63;;;-1.09;100.00
26915;BME280;14480;52.608;13.416;2023-04-20T16:19:00;143718.63;;;-1.09;100.00
26915;BME280;14480;52.608;13.416;2023-04-20T16:24:03;143742.25;;;-1.00;100.00
26915;BME280;14480;52.608;13.416;2023-04-20T16:29:12;143772.06;;;-0.88;100.00
26915;BME280;14480;52.608;13.416;2023-04-20T16:34:18;143790.75;;;-0.80;100.00
26915;BME280;14480;52.608;13.416;2023-04-20T16:45:06;143791.97;;;-0.79;100.00
26915;BME280;14480;52.608;13.416;2023-04-20T16:50:10;143753.41;;;-0.95;100.00
26915;BME280;14480;52.608;13.416;2023-04-20T16:55:18;143733.56;;;-1.03;100.00
26915;BME280;14480;52.608;13.416;2023-04-20T17:00:31;143687.56;;;-1.22;100.00
26915;BME280;14480;52.608;13.416;2023-04-20T17:05:37;143661.44;;;-1.33;100.00
26915;BME280;14480;52.608;13.416;2023-04-20T17:10:43;143636.59;;;-1.43;100.00
26915;BME280;14480;52.608;13.416;2023-04-20T17:21:11;143637.84;;;-1.42;100.00
26915;BME280;14480;52.608;13.416;2023-04-20T17:26:15;143642.78;;;-1.40;100.00
26915;BME280;14480;52.608;13.416;2023-04-20T17:31:21;143609.25;;;-1.54;100.00
26915;BME280;14480;52.608;13.416;2023-04-20T17:36:28;143594.38;;;-1.60;100.00
26915;BME280;14480;52.608;13.416;2023-04-20T17:41:33;143562.06;;;-1.73;100.00
26915;BME280;14480;52.608;13.416;2023-04-20T17:47:08;143529.72;;;-1.87;100.00
26915;BME280;14480;52.608;13.416;2023-04-20T17:52:17;143498.69;;;-1.99;100.00
26915;BME280;14480;52.608;13.416;2023-04-20T17:57:24;143455.25;;;-2.17;100.00
26915;BME280;14480;52.608;13.416;2023-04-20T18:02:29;143415.47;;;-2.33;100.00
26915;BME280;14480;52.608;13.416;2023-04-20T18:07:34;143388.16;;;-2.45;100.00
26915;BME280;14480;52.608;13.416;2023-04-20T18:12:38;143353.41;;;-2.59;100.00
26915;BME280;14480;52.608;13.416;2023-04-20T18:17:41;143306.22;;;-2.78;100.00
26915;BME280;14480;52.608;13.416;2023-04-20T18:22:49;143298.78;;;-2.81;100.00
26915;BME280;14480;52.608;13.416;2023-04-20T18:27:52;143275.22;;;-2.91;100.00
26915;BME280;14480;52.608;13.416;2023-04-20T18:32:59;143249.16;;;-3.02;100.00
26915;BME280;14480;52.608;13.416;2023-04-20T18:38:06;143235.50;;;-3.07;100.00
26915;BME280;14480;52.608;13.416;2023-04-20T18:43:10;143194.59;;;-3.24;100.00
26915;BME280;14480;52.608;13.416;2023-04-20T18:54:47;143178.44;;;-3.31;100.00
26915;BME280;14480;52.608;13.416;2023-04-20T18:59:50;143156.09;;;-3.40;100.00
26915;BME280;14480;52.608;13.416;2023-04-20T19:04:56;143169.78;;;-3.34;100.00
26915;BME280;14480;52.608;13.416;2023-04-20T19:10:02;143135.00;;;-3.48;100.00
26915;BME280;14480;52.608;13.416;2023-04-20T19:15:06;143120.16;;;-3.55;100.00
26915;BME280;14480;52.608;13.416;2023-04-20T19:20:12;143084.19;;;-3.69;100.00
26915;BME280;14480;52.608;13.416;2023-04-20T19:31:36;143049.44;;;-3.84;100.00
26915;BME280;14480;52.608;13.416;2023-04-20T19:43:15;143030.88;;;-3.91;100.00
26915;BME280;14480;52.608;13.416;2023-04-20T19:48:26;143017.19;;;-3.97;100.00
26915;BME280;14480;52.608;13.416;2023-04-20T20:20:23;142915.56;;;-4.38;100.00
26915;BME280;14480;52.608;13.416;2023-04-20T20:45:25;142838.72;;;-4.70;100.00
26915;BME280;14480;52.608;13.416;2023-04-20T20:50:32;142838.72;;;-4.70;100.00
26915;BME280;14480;52.608;13.416;2023-04-20T20:55:42;142804.06;;;-4.84;100.00
26915;BME280;14480;52.608;13.416;2023-04-20T21:00:47;142787.91;;;-4.91;100.00
26915;BME280;14480;52.608;13.416;2023-04-20T21:05:51;142787.91;;;-4.91;100.00
26915;BME280;14480;52.608;13.416;2023-04-20T21:10:54;142784.22;;;-4.92;100.00
26915;BME280;14480;52.608;13.416;2023-04-20T21:16:00;142784.22;;;-4.92;100.00
26915;BME280;14480;52.608;13.416;2023-04-20T21:21:07;142799.06;;;-4.86;100.00
